Aviation Digital Data Service (ADDS)

Output produced by METARs form (2041 UTC 23 January 2019)
found at http://www.aviationweather.gov/metar/data/
 
METAR text: ETSB 232020Z AUTO 03005KT 7000 // ////// M05/M07 Q1000 ///
Conditions at: ETSB (BUECHEL , DE) observed 2020 UTC 23 January 2019
Temperature: -5.0°C (23°F)
Dewpoint: -7.0°C (19°F) [RH = 86%]
Pressure (altimeter): 29.53 inches Hg (1000.0 mb)
Winds: from the NNE (30 degrees) at 6 MPH (5 knots; 2.6 m/s)
Visibility: 4 miles ( 7 km)
Ceiling: unknown
Clouds: missing
Weather: no significant weather observed at this time

METAR text: ETSB 231920Z AUTO 01008KT 8000 // ////// M05/M07 Q1000 ///
Conditions at: ETSB (BUECHEL , DE) observed 1920 UTC 23 January 2019
Temperature: -5.0°C (23°F)
Dewpoint: -7.0°C (19°F) [RH = 86%]
Pressure (altimeter): 29.53 inches Hg (1000.0 mb)
Winds: from the N (10 degrees) at 9 MPH (8 knots; 4.1 m/s)
Visibility: 5 miles ( 8 km)
Ceiling: unknown
Clouds: missing
Weather: no significant weather observed at this time

METAR text: ETSB 231820Z AUTO 04008KT 7000 // ////// M05/M07 Q0999 ///
Conditions at: ETSB (BUECHEL , DE) observed 1820 UTC 23 January 2019
Temperature: -5.0°C (23°F)
Dewpoint: -7.0°C (19°F) [RH = 86%]
Pressure (altimeter): 29.50 inches Hg (999.0 mb)
Winds: from the NE (40 degrees) at 9 MPH (8 knots; 4.1 m/s)
Visibility: 4 miles ( 7 km)
Ceiling: unknown
Clouds: missing
Weather: no significant weather observed at this time

METAR text: ETSB 231720Z AUTO 06007KT 7000 // ////// M05/M07 Q0998 ///
Conditions at: ETSB (BUECHEL , DE) observed 1720 UTC 23 January 2019
Temperature: -5.0°C (23°F)
Dewpoint: -7.0°C (19°F) [RH = 86%]
Pressure (altimeter): 29.47 inches Hg (998.0 mb)
Winds: from the ENE (60 degrees) at 8 MPH (7 knots; 3.6 m/s)
Visibility: 4 miles ( 7 km)
Ceiling: unknown
Clouds: missing
Weather: no significant weather observed at this time

METAR text: ETSB 231620Z 06008KT 6000 OVC006 M05/M07 Q0998 YLO FCST CANCEL
Conditions at: ETSB (BUECHEL , DE) observed 1620 UTC 23 January 2019
Temperature: -5.0°C (23°F)
Dewpoint: -7.0°C (19°F) [RH = 86%]
Pressure (altimeter): 29.47 inches Hg (998.0 mb)
Winds: from the ENE (60 degrees) at 9 MPH (8 knots; 4.1 m/s)
Visibility: 4 miles ( 6 km)
Ceiling: 600 feet AGL
Clouds: overcast cloud deck at 600 feet AGL
Weather: no significant weather observed at this time

METAR text: ETSB 231520Z 07007KT 5000 BR FEW004 BKN006 M05/M06 Q0997 BLACKYLO GRN TEMPO YLO
Conditions at: ETSB (BUECHEL , DE) observed 1520 UTC 23 January 2019
Temperature: -5.0°C (23°F)
Dewpoint: -6.0°C (21°F) [RH = 93%]
Pressure (altimeter): 29.44 inches Hg (997.0 mb)
Winds: from the ENE (70 degrees) at 8 MPH (7 knots; 3.6 m/s)
Visibility: 3 miles ( 5 km)
Ceiling: 600 feet AGL
Clouds: few clouds at 400 feet AGL
broken clouds at 600 feet AGL
Weather: BR  (mist)

METAR text: ETSB 231420Z 07007KT 4500 -SN BR SCT004 BKN006 M04/M06 Q0996 BLACKYLO GRN TEMPO YLO
Conditions at: ETSB (BUECHEL , DE) observed 1420 UTC 23 January 2019
Temperature: -4.0°C (25°F)
Dewpoint: -6.0°C (21°F) [RH = 86%]
Pressure (altimeter): 29.41 inches Hg (996.0 mb)
Winds: from the ENE (70 degrees) at 8 MPH (7 knots; 3.6 m/s)
Visibility: 2.80 miles (4.51 km)
Ceiling: 600 feet AGL
Clouds: scattered clouds at 400 feet AGL
broken clouds at 600 feet AGL
Weather: -SN BR  (light snow, mist)

METAR text: ETSB 231405Z 08009KT 4500 -SN BR SCT005 BKN007 M04/M06 Q0996 BLACKGRN GRN
Conditions at: ETSB (BUECHEL , DE) observed 1405 UTC 23 January 2019
Temperature: -4.0°C (25°F)
Dewpoint: -6.0°C (21°F) [RH = 86%]
Pressure (altimeter): 29.41 inches Hg (996.0 mb)
Winds: from the E (80 degrees) at 10 MPH (9 knots; 4.6 m/s)
Visibility: 2.80 miles (4.51 km)
Ceiling: 700 feet AGL
Clouds: scattered clouds at 500 feet AGL
broken clouds at 700 feet AGL
Weather: -SN BR  (light snow, mist)

METAR text: ETSB 231336Z 07008KT 4000 -SN BR FEW004 BKN006 M04/M06 Q0996 BLACKYLO YLO BECMG GRN
Conditions at: ETSB (BUECHEL , DE) observed 1336 UTC 23 January 2019
Temperature: -4.0°C (25°F)
Dewpoint: -6.0°C (21°F) [RH = 86%]
Pressure (altimeter): 29.41 inches Hg (996.0 mb)
Winds: from the ENE (70 degrees) at 9 MPH (8 knots; 4.1 m/s)
Visibility: 2.49 miles (4.01 km)
Ceiling: 600 feet AGL
Clouds: few clouds at 400 feet AGL
broken clouds at 600 feet AGL
Weather: -SN BR  (light snow, mist)

METAR text: ETSB 231320Z 07008KT 3000 -SN BR SCT004 BKN006 M04/M06 Q0996 BLACKYLO YLO BECMG GRN
Conditions at: ETSB (BUECHEL , DE) observed 1320 UTC 23 January 2019
Temperature: -4.0°C (25°F)
Dewpoint: -6.0°C (21°F) [RH = 86%]
Pressure (altimeter): 29.41 inches Hg (996.0 mb)
Winds: from the ENE (70 degrees) at 9 MPH (8 knots; 4.1 m/s)
Visibility: 1.86 miles (2.99 km)
Ceiling: 600 feet AGL
Clouds: scattered clouds at 400 feet AGL
broken clouds at 600 feet AGL
Weather: -SN BR  (light snow, mist)

METAR text: ETSB 231220Z 07008KT 3000 -SN BR SCT004 BKN006 M04/M06 Q0996 BLACKYLO YLO BECMG GRN
Conditions at: ETSB (BUECHEL , DE) observed 1220 UTC 23 January 2019
Temperature: -4.0°C (25°F)
Dewpoint: -6.0°C (21°F) [RH = 86%]
Pressure (altimeter): 29.41 inches Hg (996.0 mb)
Winds: from the ENE (70 degrees) at 9 MPH (8 knots; 4.1 m/s)
Visibility: 1.86 miles (2.99 km)
Ceiling: 600 feet AGL
Clouds: scattered clouds at 400 feet AGL
broken clouds at 600 feet AGL
Weather: -SN BR  (light snow, mist)

METAR text: ETSB 231140Z 08009KT 3000 -SN BR SCT003 BKN005 M04/M05 Q0995 BLACKYLO YLO BECMG GRN
Conditions at: ETSB (BUECHEL , DE) observed 1140 UTC 23 January 2019
Temperature: -4.0°C (25°F)
Dewpoint: -5.0°C (23°F) [RH = 93%]
Pressure (altimeter): 29.38 inches Hg (995.0 mb)
Winds: from the E (80 degrees) at 10 MPH (9 knots; 4.6 m/s)
Visibility: 1.86 miles (2.99 km)
Ceiling: 500 feet AGL
Clouds: scattered clouds at 300 feet AGL
broken clouds at 500 feet AGL
Weather: -SN BR  (light snow, mist)

METAR text: ETSB 231120Z 08008KT 2500 -SN BR SCT002 BKN003 M05/M06 Q0996 BLACKYLO YLO TEMPO RED
Conditions at: ETSB (BUECHEL , DE) observed 1120 UTC 23 January 2019
Temperature: -5.0°C (23°F)
Dewpoint: -6.0°C (21°F) [RH = 93%]
Pressure (altimeter): 29.41 inches Hg (996.0 mb)
Winds: from the E (80 degrees) at 9 MPH (8 knots; 4.1 m/s)
Visibility: 1.55 miles (2.49 km)
Ceiling: 300 feet AGL
Clouds: scattered clouds at 200 feet AGL
broken clouds at 300 feet AGL
Weather: -SN BR  (light snow, mist)

METAR text: ETSB 231020Z 09009KT 2500 BR SCT002 BKN003 M05/M06 Q0996 BLACKYLO YLO TEMPO RED
Conditions at: ETSB (BUECHEL , DE) observed 1020 UTC 23 January 2019
Temperature: -5.0°C (23°F)
Dewpoint: -6.0°C (21°F) [RH = 93%]
Pressure (altimeter): 29.41 inches Hg (996.0 mb)
Winds: from the E (90 degrees) at 10 MPH (9 knots; 4.6 m/s)
Visibility: 1.55 miles (2.49 km)
Ceiling: 300 feet AGL
Clouds: scattered clouds at 200 feet AGL
broken clouds at 300 feet AGL
Weather: BR  (mist)

METAR text: ETSB 230920Z 09008KT 2500 BR FEW001 BKN003 M05/M06 Q0995 BLACKYLO YLO TEMPO RED
Conditions at: ETSB (BUECHEL , DE) observed 0920 UTC 23 January 2019
Temperature: -5.0°C (23°F)
Dewpoint: -6.0°C (21°F) [RH = 93%]
Pressure (altimeter): 29.38 inches Hg (995.0 mb)
Winds: from the E (90 degrees) at 9 MPH (8 knots; 4.1 m/s)
Visibility: 1.55 miles (2.49 km)
Ceiling: 300 feet AGL
Clouds: few clouds at 100 feet AGL
broken clouds at 300 feet AGL
Weather: BR  (mist)

METAR text: ETSB 230909Z 09008KT 2500 BR FEW001 BKN003 M05/M06 Q0995 BLACKYLO YLO TEMPO RED
Conditions at: ETSB (BUECHEL , DE) observed 0909 UTC 23 January 2019
Temperature: -5.0°C (23°F)
Dewpoint: -6.0°C (21°F) [RH = 93%]
Pressure (altimeter): 29.38 inches Hg (995.0 mb)
Winds: from the E (90 degrees) at 9 MPH (8 knots; 4.1 m/s)
Visibility: 1.55 miles (2.49 km)
Ceiling: 300 feet AGL
Clouds: few clouds at 100 feet AGL
broken clouds at 300 feet AGL
Weather: BR  (mist)

METAR text: ETSB 230820Z 09008KT 2500 BR FEW001 BKN006 M05/M06 Q0995 BLACKYLO YLO TEMPO RED
Conditions at: ETSB (BUECHEL , DE) observed 0820 UTC 23 January 2019
Temperature: -5.0°C (23°F)
Dewpoint: -6.0°C (21°F) [RH = 93%]
Pressure (altimeter): 29.38 inches Hg (995.0 mb)
Winds: from the E (90 degrees) at 9 MPH (8 knots; 4.1 m/s)
Visibility: 1.55 miles (2.49 km)
Ceiling: 600 feet AGL
Clouds: few clouds at 100 feet AGL
broken clouds at 600 feet AGL
Weather: BR  (mist)

METAR text: ETSB 230720Z 09008KT 1600 BR BKN001 BKN006 M05/M06 Q0995 BLACKRED RED
Conditions at: ETSB (BUECHEL , DE) observed 0720 UTC 23 January 2019
Temperature: -5.0°C (23°F)
Dewpoint: -6.0°C (21°F) [RH = 93%]
Pressure (altimeter): 29.38 inches Hg (995.0 mb)
Winds: from the E (90 degrees) at 9 MPH (8 knots; 4.1 m/s)
Visibility: 0.99 miles (1.59 km)
Ceiling: 100 feet AGL
Clouds: broken clouds at 100 feet AGL
broken clouds at 600 feet AGL
Weather: BR  (mist)

METAR text: ETSB 230625Z 10008KT 2000 -SN BR BKN001 BKN006 M05/M06 Q0995 BLACKRED RED
Conditions at: ETSB (BUECHEL , DE) observed 0625 UTC 23 January 2019
Temperature: -5.0°C (23°F)
Dewpoint: -6.0°C (21°F) [RH = 93%]
Pressure (altimeter): 29.38 inches Hg (995.0 mb)
Winds: from the E (100 degrees) at 9 MPH (8 knots; 4.1 m/s)
Visibility: 1.24 miles (2.00 km)
Ceiling: 100 feet AGL
Clouds: broken clouds at 100 feet AGL
broken clouds at 600 feet AGL
Weather: -SN BR  (light snow, mist)

METAR text: ETSB 230620Z 10008KT 2000 -SN BR BKN001 BKN006 M05/M06 Q0995 RED RED
Conditions at: ETSB (BUECHEL , DE) observed 0620 UTC 23 January 2019
Temperature: -5.0°C (23°F)
Dewpoint: -6.0°C (21°F) [RH = 93%]
Pressure (altimeter): 29.38 inches Hg (995.0 mb)
Winds: from the E (100 degrees) at 9 MPH (8 knots; 4.1 m/s)
Visibility: 1.24 miles (2.00 km)
Ceiling: 100 feet AGL
Clouds: broken clouds at 100 feet AGL
broken clouds at 600 feet AGL
Weather: -SN BR  (light snow, mist)

METAR text: ETSB 230520Z 10007KT 1500 -SN BR BKN001 M05/M06 Q0995 RED RED
Conditions at: ETSB (BUECHEL , DE) observed 0520 UTC 23 January 2019
Temperature: -5.0°C (23°F)
Dewpoint: -6.0°C (21°F) [RH = 93%]
Pressure (altimeter): 29.38 inches Hg (995.0 mb)
Winds: from the E (100 degrees) at 8 MPH (7 knots; 3.6 m/s)
Visibility: 0.93 miles (1.50 km)
Ceiling: 100 feet AGL
Clouds: broken clouds at 100 feet AGL
Weather: -SN BR  (light snow, mist)

METAR text: ETSB 230420Z 10007KT 1500 -SN BR BKN001 M05/M05 Q0996 RED RED
Conditions at: ETSB (BUECHEL , DE) observed 0420 UTC 23 January 2019
Temperature: -5.0°C (23°F)
Dewpoint: -5.0°C (23°F) [RH = 100%]
Pressure (altimeter): 29.41 inches Hg (996.0 mb)
Winds: from the E (100 degrees) at 8 MPH (7 knots; 3.6 m/s)
Visibility: 0.93 miles (1.50 km)
Ceiling: 100 feet AGL
Clouds: broken clouds at 100 feet AGL
Weather: -SN BR  (light snow, mist)

METAR text: ETSB 230402Z 10006KT 1500 -SN BR BKN001 M05/M05 Q0996 RED
Conditions at: ETSB (BUECHEL , DE) observed 0402 UTC 23 January 2019
Temperature: -5.0°C (23°F)
Dewpoint: -5.0°C (23°F) [RH = 100%]
Pressure (altimeter): 29.41 inches Hg (996.0 mb)
Winds: from the E (100 degrees) at 7 MPH (6 knots; 3.1 m/s)
Visibility: 0.93 miles (1.50 km)
Ceiling: 100 feet AGL
Clouds: broken clouds at 100 feet AGL
Weather: -SN BR  (light snow, mist)

METAR text: ETSB 230320Z AUTO 10004KT 1500 // ////// M05/M05 Q0996 ///
Conditions at: ETSB (BUECHEL , DE) observed 0320 UTC 23 January 2019
Temperature: -5.0°C (23°F)
Dewpoint: -5.0°C (23°F) [RH = 100%]
Pressure (altimeter): 29.41 inches Hg (996.0 mb)
Winds: from the E (100 degrees) at 5 MPH (4 knots; 2.1 m/s)
Visibility: 0.93 miles (1.50 km)
Ceiling: unknown
Clouds: missing
Weather: no significant weather observed at this time

METAR text: ETSB 230220Z AUTO 13004KT 3200 // ////// M05/M06 Q0997 ///
Conditions at: ETSB (BUECHEL , DE) observed 0220 UTC 23 January 2019
Temperature: -5.0°C (23°F)
Dewpoint: -6.0°C (21°F) [RH = 93%]
Pressure (altimeter): 29.44 inches Hg (997.0 mb)
Winds: from the SE (130 degrees) at 5 MPH (4 knots; 2.1 m/s)
Visibility: 1.99 miles (3.20 km)
Ceiling: unknown
Clouds: missing
Weather: no significant weather observed at this time

METAR text: ETSB 230120Z AUTO 14005KT 5000 // ////// M05/M06 Q0997 ///
Conditions at: ETSB (BUECHEL , DE) observed 0120 UTC 23 January 2019
Temperature: -5.0°C (23°F)
Dewpoint: -6.0°C (21°F) [RH = 93%]
Pressure (altimeter): 29.44 inches Hg (997.0 mb)
Winds: from the SE (140 degrees) at 6 MPH (5 knots; 2.6 m/s)
Visibility: 3 miles ( 5 km)
Ceiling: unknown
Clouds: missing
Weather: no significant weather observed at this time

METAR text: ETSB 230020Z AUTO 14005KT 3900 // ////// M05/M06 Q0998 ///
Conditions at: ETSB (BUECHEL , DE) observed 0020 UTC 23 January 2019
Temperature: -5.0°C (23°F)
Dewpoint: -6.0°C (21°F) [RH = 93%]
Pressure (altimeter): 29.47 inches Hg (998.0 mb)
Winds: from the SE (140 degrees) at 6 MPH (5 knots; 2.6 m/s)
Visibility: 2.42 miles (3.89 km)
Ceiling: unknown
Clouds: missing
Weather: no significant weather observed at this time

METAR text: ETSB 222320Z AUTO 13003KT 2000 // ////// M05/M06 Q0999 ///
Conditions at: ETSB (BUECHEL , DE) observed 2320 UTC 22 January 2019
Temperature: -5.0°C (23°F)
Dewpoint: -6.0°C (21°F) [RH = 93%]
Pressure (altimeter): 29.50 inches Hg (999.0 mb)
Winds: from the SE (130 degrees) at 3 MPH (3 knots; 1.5 m/s)
Visibility: 1.24 miles (2.00 km)
Ceiling: unknown
Clouds: missing
Weather: no significant weather observed at this time

METAR text: ETSB 222220Z AUTO 12004KT 2700 // ////// M05/M06 Q0999 ///
Conditions at: ETSB (BUECHEL , DE) observed 2220 UTC 22 January 2019
Temperature: -5.0°C (23°F)
Dewpoint: -6.0°C (21°F) [RH = 93%]
Pressure (altimeter): 29.50 inches Hg (999.0 mb)
Winds: from the ESE (120 degrees) at 5 MPH (4 knots; 2.1 m/s)
Visibility: 1.68 miles (2.70 km)
Ceiling: unknown
Clouds: missing
Weather: no significant weather observed at this time

METAR text: ETSB 222120Z AUTO 14004KT 2500 // ////// M06/M07 Q1000 ///
Conditions at: ETSB (BUECHEL , DE) observed 2120 UTC 22 January 2019
Temperature: -6.0°C (21°F)
Dewpoint: -7.0°C (19°F) [RH = 93%]
Pressure (altimeter): 29.53 inches Hg (1000.0 mb)
Winds: from the SE (140 degrees) at 5 MPH (4 knots; 2.1 m/s)
Visibility: 1.55 miles (2.49 km)
Ceiling: unknown
Clouds: missing
Weather: no significant weather observed at this time

METAR text: ETSB 222045Z 14004KT 4500 -SN BKN006 BKN070 M06/M07 Q1000 YLO FCST CANCEL
Conditions at: ETSB (BUECHEL , DE) observed 2045 UTC 22 January 2019
Temperature: -6.0°C (21°F)
Dewpoint: -7.0°C (19°F) [RH = 93%]
Pressure (altimeter): 29.53 inches Hg (1000.0 mb)
Winds: from the SE (140 degrees) at 5 MPH (4 knots; 2.1 m/s)
Visibility: 2.80 miles (4.51 km)
Ceiling: 600 feet AGL
Clouds: broken clouds at 600 feet AGL
broken clouds at 7000 feet AGL
Weather: -SN  (light snow)

METAR text: ETSB 222020Z 15005KT 4500 -SN BKN006 BKN070 M06/M07 Q1000 YLO YLO TEMPO AMB
Conditions at: ETSB (BUECHEL , DE) observed 2020 UTC 22 January 2019
Temperature: -6.0°C (21°F)
Dewpoint: -7.0°C (19°F) [RH = 93%]
Pressure (altimeter): 29.53 inches Hg (1000.0 mb)
Winds: from the SSE (150 degrees) at 6 MPH (5 knots; 2.6 m/s)
Visibility: 2.80 miles (4.51 km)
Ceiling: 600 feet AGL
Clouds: broken clouds at 600 feet AGL
broken clouds at 7000 feet AGL
Weather: -SN  (light snow)

METAR text: ETSB 222014Z 15005KT 4500 -SN BKN006 BKN070 M06/M07 Q1000 YLO YLO TEMPO AMB
Conditions at: ETSB (BUECHEL , DE) observed 2014 UTC 22 January 2019
Temperature: -6.0°C (21°F)
Dewpoint: -7.0°C (19°F) [RH = 93%]
Pressure (altimeter): 29.53 inches Hg (1000.0 mb)
Winds: from the SSE (150 degrees) at 6 MPH (5 knots; 2.6 m/s)
Visibility: 2.80 miles (4.51 km)
Ceiling: 600 feet AGL
Clouds: broken clouds at 600 feet AGL
broken clouds at 7000 feet AGL
Weather: -SN  (light snow)

METAR text: ETSB 221920Z 15005KT 7000 BKN006 BKN023 M05/M07 Q1001 YLO YLO BECMG AMB
Conditions at: ETSB (BUECHEL , DE) observed 1920 UTC 22 January 2019
Temperature: -5.0°C (23°F)
Dewpoint: -7.0°C (19°F) [RH = 86%]
Pressure (altimeter): 29.56 inches Hg (1001.0 mb)
Winds: from the SSE (150 degrees) at 6 MPH (5 knots; 2.6 m/s)
Visibility: 4 miles ( 7 km)
Ceiling: 600 feet AGL
Clouds: broken clouds at 600 feet AGL
broken clouds at 2300 feet AGL
Weather: no significant weather observed at this time

METAR text: ETSB 221820Z 16006KT 6000 -SN BKN006 BKN023 M05/M06 Q1001 YLO YLO BECMG AMB
Conditions at: ETSB (BUECHEL , DE) observed 1820 UTC 22 January 2019
Temperature: -5.0°C (23°F)
Dewpoint: -6.0°C (21°F) [RH = 93%]
Pressure (altimeter): 29.56 inches Hg (1001.0 mb)
Winds: from the SSE (160 degrees) at 7 MPH (6 knots; 3.1 m/s)
Visibility: 4 miles ( 6 km)
Ceiling: 600 feet AGL
Clouds: broken clouds at 600 feet AGL
broken clouds at 2300 feet AGL
Weather: -SN  (light snow)

METAR text: ETSB 221720Z 18005KT 4000 -SN BR BKN006 BKN140 M05/M06 Q1002 YLO GRN BECMG AMB
Conditions at: ETSB (BUECHEL , DE) observed 1720 UTC 22 January 2019
Temperature: -5.0°C (23°F)
Dewpoint: -6.0°C (21°F) [RH = 93%]
Pressure (altimeter): 29.59 inches Hg (1002.0 mb)
Winds: from the S (180 degrees) at 6 MPH (5 knots; 2.6 m/s)
Visibility: 2.49 miles (4.01 km)
Ceiling: 600 feet AGL
Clouds: broken clouds at 600 feet AGL
broken clouds at 14000 feet AGL
Weather: -SN BR  (light snow, mist)

METAR text: ETSB 221710Z 18004KT 4000 -SN BR BKN006 BKN140 M05/M06 Q1002 YLO GRN BECMG AMB
Conditions at: ETSB (BUECHEL , DE) observed 1710 UTC 22 January 2019
Temperature: -5.0°C (23°F)
Dewpoint: -6.0°C (21°F) [RH = 93%]
Pressure (altimeter): 29.59 inches Hg (1002.0 mb)
Winds: from the S (180 degrees) at 5 MPH (4 knots; 2.1 m/s)
Visibility: 2.49 miles (4.01 km)
Ceiling: 600 feet AGL
Clouds: broken clouds at 600 feet AGL
broken clouds at 14000 feet AGL
Weather: -SN BR  (light snow, mist)

METAR text: ETSB 221628Z 19004KT 4000 BR FEW006 BKN009 M05/M06 Q1002 GRN GRN
Conditions at: ETSB (BUECHEL , DE) observed 1628 UTC 22 January 2019
Temperature: -5.0°C (23°F)
Dewpoint: -6.0°C (21°F) [RH = 93%]
Pressure (altimeter): 29.59 inches Hg (1002.0 mb)
Winds: from the S (190 degrees) at 5 MPH (4 knots; 2.1 m/s)
Visibility: 2.49 miles (4.01 km)
Ceiling: 900 feet AGL
Clouds: few clouds at 600 feet AGL
broken clouds at 900 feet AGL
Weather: BR  (mist)

METAR text: ETSB 221620Z 19004KT 5000 BR FEW006 BKN010 M05/M06 Q1002 GRN GRN
Conditions at: ETSB (BUECHEL , DE) observed 1620 UTC 22 January 2019
Temperature: -5.0°C (23°F)
Dewpoint: -6.0°C (21°F) [RH = 93%]
Pressure (altimeter): 29.59 inches Hg (1002.0 mb)
Winds: from the S (190 degrees) at 5 MPH (4 knots; 2.1 m/s)
Visibility: 3 miles ( 5 km)
Ceiling: 1000 feet AGL
Clouds: few clouds at 600 feet AGL
broken clouds at 1000 feet AGL
Weather: BR  (mist)

METAR text: ETSB 221520Z 18007KT 6000 FEW005 BKN008 BKN180 M05/M06 Q1003 GRN GRN TEMPO BLU
Conditions at: ETSB (BUECHEL , DE) observed 1520 UTC 22 January 2019
Temperature: -5.0°C (23°F)
Dewpoint: -6.0°C (21°F) [RH = 93%]
Pressure (altimeter): 29.62 inches Hg (1003.0 mb)
Winds: from the S (180 degrees) at 8 MPH (7 knots; 3.6 m/s)
Visibility: 4 miles ( 6 km)
Ceiling: 800 feet AGL
Clouds: few clouds at 500 feet AGL
broken clouds at 800 feet AGL
broken clouds at 18000 feet AGL
Weather: no significant weather observed at this time

METAR text: ETSB 221447Z 20007KT 6000 FEW005 BKN009 BKN190 M05/M06 Q1003 GRN GRN TEMPO BLU
Conditions at: ETSB (BUECHEL , DE) observed 1447 UTC 22 January 2019
Temperature: -5.0°C (23°F)
Dewpoint: -6.0°C (21°F) [RH = 93%]
Pressure (altimeter): 29.62 inches Hg (1003.0 mb)
Winds: from the SSW (200 degrees) at 8 MPH (7 knots; 3.6 m/s)
Visibility: 4 miles ( 6 km)
Ceiling: 900 feet AGL
Clouds: few clouds at 500 feet AGL
broken clouds at 900 feet AGL
broken clouds at 19000 feet AGL
Weather: no significant weather observed at this time

METAR text: ETSB 221437Z 21008KT 6000 FEW005 BKN009 BKN190 M05/M06 Q1004 GRN GRN TEMPO BLU
Conditions at: ETSB (BUECHEL , DE) observed 1437 UTC 22 January 2019
Temperature: -5.0°C (23°F)
Dewpoint: -6.0°C (21°F) [RH = 93%]
Pressure (altimeter): 29.65 inches Hg (1004.0 mb)
Winds: from the SSW (210 degrees) at 9 MPH (8 knots; 4.1 m/s)
Visibility: 4 miles ( 6 km)
Ceiling: 900 feet AGL
Clouds: few clouds at 500 feet AGL
broken clouds at 900 feet AGL
broken clouds at 19000 feet AGL
Weather: no significant weather observed at this time

METAR text: ETSB 221431Z 21009KT 6000 FEW005 BKN009 BKN190 M05/M06 Q1004 GRN GRN TEMPO BLU
Conditions at: ETSB (BUECHEL , DE) observed 1431 UTC 22 January 2019
Temperature: -5.0°C (23°F)
Dewpoint: -6.0°C (21°F) [RH = 93%]
Pressure (altimeter): 29.65 inches Hg (1004.0 mb)
Winds: from the SSW (210 degrees) at 10 MPH (9 knots; 4.6 m/s)
Visibility: 4 miles ( 6 km)
Ceiling: 900 feet AGL
Clouds: few clouds at 500 feet AGL
broken clouds at 900 feet AGL
broken clouds at 19000 feet AGL
Weather: no significant weather observed at this time

METAR text: ETSB 221420Z 21009KT 6000 FEW005 SCT008 BKN190 M05/M06 Q1004 WHT GRN TEMPO BLU
Conditions at: ETSB (BUECHEL , DE) observed 1420 UTC 22 January 2019
Temperature: -5.0°C (23°F)
Dewpoint: -6.0°C (21°F) [RH = 93%]
Pressure (altimeter): 29.65 inches Hg (1004.0 mb)
Winds: from the SSW (210 degrees) at 10 MPH (9 knots; 4.6 m/s)
Visibility: 4 miles ( 6 km)
Ceiling: 19000 feet AGL
Clouds: few clouds at 500 feet AGL
scattered clouds at 800 feet AGL
broken clouds at 19000 feet AGL
Weather: no significant weather observed at this time

METAR text: ETSB 221401Z 21009KT 6000 SCT005 BKN008 M05/M06 Q1004 GRN YLO TEMPO WHT
Conditions at: ETSB (BUECHEL , DE) observed 1401 UTC 22 January 2019
Temperature: -5.0°C (23°F)
Dewpoint: -6.0°C (21°F) [RH = 93%]
Pressure (altimeter): 29.65 inches Hg (1004.0 mb)
Winds: from the SSW (210 degrees) at 10 MPH (9 knots; 4.6 m/s)
Visibility: 4 miles ( 6 km)
Ceiling: 800 feet AGL
Clouds: scattered clouds at 500 feet AGL
broken clouds at 800 feet AGL
Weather: no significant weather observed at this time

METAR text: ETSB 221320Z 22005KT 6000 SCT004 BKN006 M05/M06 Q1005 YLO YLO TEMPO WHT
Conditions at: ETSB (BUECHEL , DE) observed 1320 UTC 22 January 2019
Temperature: -5.0°C (23°F)
Dewpoint: -6.0°C (21°F) [RH = 93%]
Pressure (altimeter): 29.68 inches Hg (1005.0 mb)
Winds: from the SW (220 degrees) at 6 MPH (5 knots; 2.6 m/s)
Visibility: 4 miles ( 6 km)
Ceiling: 600 feet AGL
Clouds: scattered clouds at 400 feet AGL
broken clouds at 600 feet AGL
Weather: no significant weather observed at this time

METAR text: ETSB 221250Z 21008KT 6000 SCT004 BKN005 M05/M06 Q1005 YLO YLO TEMPO WHT
Conditions at: ETSB (BUECHEL , DE) observed 1250 UTC 22 January 2019
Temperature: -5.0°C (23°F)
Dewpoint: -6.0°C (21°F) [RH = 93%]
Pressure (altimeter): 29.68 inches Hg (1005.0 mb)
Winds: from the SSW (210 degrees) at 9 MPH (8 knots; 4.1 m/s)
Visibility: 4 miles ( 6 km)
Ceiling: 500 feet AGL
Clouds: scattered clouds at 400 feet AGL
broken clouds at 500 feet AGL
Weather: no significant weather observed at this time

METAR text: ETSB 221220Z 21007KT 5000 BR SCT003 BKN004 M05/M06 Q1005 YLO YLO TEMPO WHT
Conditions at: ETSB (BUECHEL , DE) observed 1220 UTC 22 January 2019
Temperature: -5.0°C (23°F)
Dewpoint: -6.0°C (21°F) [RH = 93%]
Pressure (altimeter): 29.68 inches Hg (1005.0 mb)
Winds: from the SSW (210 degrees) at 8 MPH (7 knots; 3.6 m/s)
Visibility: 3 miles ( 5 km)
Ceiling: 400 feet AGL
Clouds: scattered clouds at 300 feet AGL
broken clouds at 400 feet AGL
Weather: BR  (mist)

METAR text: ETSB 221120Z 21008KT 3700 BR FEW002 BKN003 M06/M07 Q1007 YLO YLO TEMPO WHT
Conditions at: ETSB (BUECHEL , DE) observed 1120 UTC 22 January 2019
Temperature: -6.0°C (21°F)
Dewpoint: -7.0°C (19°F) [RH = 93%]
Pressure (altimeter): 29.73 inches Hg (1007.0 mb)
Winds: from the SSW (210 degrees) at 9 MPH (8 knots; 4.1 m/s)
Visibility: 2.30 miles (3.70 km)
Ceiling: 300 feet AGL
Clouds: few clouds at 200 feet AGL
broken clouds at 300 feet AGL
Weather: BR  (mist)

METAR text: ETSB 221050Z 20008KT 3000 BR SCT001 BKN002 M06/M07 Q1007 AMB AMB BECMG YLO
Conditions at: ETSB (BUECHEL , DE) observed 1050 UTC 22 January 2019
Temperature: -6.0°C (21°F)
Dewpoint: -7.0°C (19°F) [RH = 93%]
Pressure (altimeter): 29.73 inches Hg (1007.0 mb)
Winds: from the SSW (200 degrees) at 9 MPH (8 knots; 4.1 m/s)
Visibility: 1.86 miles (2.99 km)
Ceiling: 200 feet AGL
Clouds: scattered clouds at 100 feet AGL
broken clouds at 200 feet AGL
Weather: BR  (mist)

METAR text: ETSB 221020Z 21007KT 2500 BR SCT001 BKN002 M07/M08 Q1008 AMB AMB
Conditions at: ETSB (BUECHEL , DE) observed 1020 UTC 22 January 2019
Temperature: -7.0°C (19°F)
Dewpoint: -8.0°C (18°F) [RH = 93%]
Pressure (altimeter): 29.76 inches Hg (1008.0 mb)
Winds: from the SSW (210 degrees) at 8 MPH (7 knots; 3.6 m/s)
Visibility: 1.55 miles (2.49 km)
Ceiling: 200 feet AGL
Clouds: scattered clouds at 100 feet AGL
broken clouds at 200 feet AGL
Weather: BR  (mist)

METAR text: ETSB 220932Z 22007KT 1800 R21/3100U BR BKN001 M07/M08 Q1008 RED RED BECMG AMB
Conditions at: ETSB (BUECHEL , DE) observed 0932 UTC 22 January 2019
Temperature: -7.0°C (19°F)
Dewpoint: -8.0°C (18°F) [RH = 93%]
Pressure (altimeter): 29.76 inches Hg (1008.0 mb)
Winds: from the SW (220 degrees) at 8 MPH (7 knots; 3.6 m/s)
Visibility: 1.12 miles (1.80 km)
Ceiling: 100 feet AGL
Clouds: broken clouds at 100 feet AGL
Weather: BR  (mist)

METAR text: ETSB 220920Z 21008KT 1000 R21/2700U BR BKN001 M07/M08 Q1008 RED RED
Conditions at: ETSB (BUECHEL , DE) observed 0920 UTC 22 January 2019
Temperature: -7.0°C (19°F)
Dewpoint: -8.0°C (18°F) [RH = 93%]
Pressure (altimeter): 29.76 inches Hg (1008.0 mb)
Winds: from the SSW (210 degrees) at 9 MPH (8 knots; 4.1 m/s)
Visibility: 0.62 miles (1.00 km)
Ceiling: 100 feet AGL
Clouds: broken clouds at 100 feet AGL
Weather: BR  (mist)

METAR text: ETSB 220900Z 22008KT 0400 R21/0800D FZFG VV000 M07/M08 Q1008 RED RED
Conditions at: ETSB (BUECHEL , DE) observed 0900 UTC 22 January 2019
Temperature: -7.0°C (19°F)
Dewpoint: -8.0°C (18°F) [RH = 93%]
Pressure (altimeter): 29.76 inches Hg (1008.0 mb)
Winds: from the SW (220 degrees) at 9 MPH (8 knots; 4.1 m/s)
Visibility: 0.25 miles (0.40 km)
Ceiling: indefinite ceiling with vertical visibility of 0 feet AGL
Clouds: obscured sky
Weather: FZFG  (freezing fog)

Forecast for: AMD
Text: TAF AMD ETSB 231610Z 2316/2324 06007KT 5000 BR SCT005 BKN008
Forecast period: 1600 UTC 23 January 2019 to 0000 UTC 24 January 2019
Forecast type: FROM: standard forecast or significant change
Winds: from the ENE (60 degrees) at 8 MPH (7 knots; 3.6 m/s)
Visibility: 3 miles (5 km)
Ceiling: 800 feet AGL
Clouds: scattered clouds at 500 feet AGL
broken clouds at 800 feet AGL
Weather: BR  (mist)
Text: TEMPO 2316/2324 03006KT 4000 -SN BKN005 OVC008 CANCEL 1620 BY ETGL
Forecast period: 1600 UTC 23 January 2019 to 0000 UTC 24 January 2019
Forecast type: TEMPORARY: The following changes expected for less than half the time period
Winds: from the NNE (30 degrees) at 7 MPH (6 knots; 3.1 m/s)
Visibility: 2.49 miles (4.01 km)
Ceiling: 500 feet AGL
Clouds: broken clouds at 500 feet AGL
overcast cloud deck at 800 feet AGL
Weather: -SN  (light snow)